createdAt,value
2018-01-30T00:00:50.672Z,81.52
2018-01-30T00:01:50.657Z,80.66
2018-01-30T00:03:43.989Z,80.86
2018-01-30T00:04:43.953Z,81.85
2018-01-30T00:06:36.784Z,82.32
2018-01-30T00:07:36.765Z,80.47
2018-01-30T00:09:29.607Z,80.47
2018-01-30T00:10:29.564Z,81.24
2018-01-30T00:12:22.894Z,80.10
2018-01-30T00:13:22.875Z,79.43
2018-01-30T00:15:15.717Z,78.48
2018-01-30T00:16:15.677Z,78.10
2018-01-30T00:18:09.000Z,78.86
2018-01-30T00:19:08.986Z,79.05
2018-01-30T00:21:02.325Z,80.10
2018-01-30T00:22:02.275Z,79.62
2018-01-30T00:23:55.104Z,80.00
2018-01-30T00:24:55.078Z,79.81
2018-01-30T00:26:47.928Z,80.19
2018-01-30T00:27:47.882Z,78.48
2018-01-30T00:29:40.717Z,78.77
2018-01-30T00:30:40.694Z,80.19
2018-01-30T00:32:34.060Z,78.96
2018-01-30T00:33:34.009Z,79.43
2018-01-30T00:35:26.843Z,80.95
2018-01-30T00:36:26.816Z,80.95
2018-01-30T00:38:20.149Z,81.37
2018-01-30T00:39:20.116Z,81.24
2018-01-30T00:41:12.950Z,79.91
2018-01-30T00:42:12.919Z,80.66
2018-01-30T00:44:06.266Z,80.76
2018-01-30T00:45:06.223Z,80.38
2018-01-30T00:46:59.545Z,80.66
2018-01-30T00:47:59.520Z,80.86
2018-01-30T00:49:52.866Z,79.72
2018-01-30T00:50:52.826Z,79.43
2018-01-30T00:52:45.649Z,80.00
2018-01-30T00:53:45.965Z,79.91
2018-01-30T00:55:38.970Z,80.57
2018-01-30T00:56:38.925Z,81.90
2018-01-30T00:58:32.254Z,81.24
2018-01-30T00:59:32.227Z,80.76
2018-01-30T01:01:25.564Z,82.09
2018-01-30T01:02:25.534Z,80.76
2018-01-30T01:04:18.845Z,79.72
2018-01-30T01:05:18.848Z,78.67
2018-01-30T01:07:11.672Z,80.95
2018-01-30T01:08:11.643Z,80.00
2018-01-30T01:10:04.952Z,80.66
2018-01-30T01:11:04.928Z,79.91
2018-01-30T01:12:57.774Z,79.14
2018-01-30T01:13:57.746Z,79.05
2018-01-30T01:15:50.569Z,78.57
2018-01-30T01:16:50.548Z,79.24
2018-01-30T01:18:43.891Z,80.57
2018-01-30T01:19:43.849Z,80.47
2018-01-30T01:21:37.175Z,79.62
2018-01-30T01:22:37.151Z,80.00
2018-01-30T01:24:30.004Z,80.76
2018-01-30T01:25:29.959Z,79.91
2018-01-30T01:27:23.295Z,80.19
2018-01-30T01:28:23.268Z,80.29
2018-01-30T01:30:16.614Z,77.62
2018-01-30T01:31:16.578Z,77.34
2018-01-30T01:33:09.411Z,78.10
2018-01-30T01:34:09.378Z,79.72
2018-01-30T01:36:02.225Z,77.91
2018-01-30T01:37:02.199Z,77.15
2018-01-30T01:38:55.012Z,74.39
2018-01-30T01:39:54.990Z,74.58
2018-01-30T01:41:47.837Z,73.06
2018-01-30T01:42:47.801Z,72.58
2018-01-30T01:44:40.632Z,72.20
2018-01-30T01:45:40.614Z,73.25
2018-01-30T01:47:33.953Z,71.63
2018-01-30T01:48:33.914Z,70.87
2018-01-30T01:50:27.233Z,69.82
2018-01-30T01:51:27.223Z,69.63
2018-01-30T01:53:20.552Z,70.20
2018-01-30T01:54:20.521Z,72.49
2018-01-30T01:56:13.834Z,71.44
2018-01-30T01:57:13.833Z,71.15
2018-01-30T01:59:07.150Z,69.63
2018-01-30T02:00:07.125Z,68.40
2018-01-30T02:01:59.951Z,68.68
2018-01-30T02:02:59.920Z,68.96
2018-01-30T02:04:53.268Z,69.25
2018-01-30T02:05:53.230Z,70.10
2018-01-30T02:07:46.063Z,70.10
2018-01-30T02:08:46.035Z,69.25
2018-01-30T02:10:39.383Z,68.68
2018-01-30T02:11:39.360Z,69.92
2018-01-30T02:13:32.683Z,70.20
2018-01-30T02:14:32.661Z,69.25
2018-01-30T02:16:26.009Z,68.96
2018-01-30T02:17:25.970Z,69.44
2018-01-30T02:19:19.294Z,69.54
2018-01-30T02:20:19.273Z,69.82
2018-01-30T02:22:12.603Z,69.54
2018-01-30T02:23:12.570Z,69.63
2018-01-30T02:25:05.896Z,66.97
2018-01-30T02:26:05.874Z,69.06
2018-01-30T02:27:59.215Z,70.01
2018-01-30T02:28:59.169Z,69.73
2018-01-30T02:30:52.509Z,69.63
2018-01-30T02:31:52.498Z,68.68
2018-01-30T02:33:45.816Z,67.25
2018-01-30T02:34:45.784Z,66.49
2018-01-30T02:36:39.108Z,68.96
2018-01-30T02:37:39.080Z,70.01
2018-01-30T02:39:32.418Z,68.87
2018-01-30T02:40:32.400Z,66.78
2018-01-30T02:42:25.703Z,66.78
2018-01-30T02:43:25.687Z,66.59
2018-01-30T02:45:19.033Z,67.63
2018-01-30T02:46:18.995Z,67.16
2018-01-30T02:48:12.321Z,66.97
2018-01-30T02:49:12.299Z,66.59
2018-01-30T02:51:05.629Z,68.40
2018-01-30T02:52:05.604Z,67.54
2018-01-30T02:53:59.074Z,69.73
2018-01-30T02:54:59.053Z,70.10
2018-01-30T02:56:52.384Z,70.58
2018-01-30T02:57:52.363Z,71.63
2018-01-30T02:59:45.673Z,70.10
2018-01-30T03:00:45.659Z,68.87
2018-01-30T03:02:38.982Z,69.35
2018-01-30T03:03:38.948Z,69.82
2018-01-30T03:05:31.772Z,68.77
2018-01-30T03:06:31.749Z,69.82
2018-01-30T03:08:24.607Z,69.82
2018-01-30T03:09:24.572Z,70.30
2018-01-30T03:11:17.871Z,69.63
2018-01-30T03:12:17.864Z,69.35
2018-01-30T03:14:10.711Z,70.39
2018-01-30T03:15:10.669Z,71.15
2018-01-30T03:17:04.003Z,71.91
2018-01-30T03:18:03.971Z,71.34
2018-01-30T03:19:56.825Z,69.82
2018-01-30T03:20:56.778Z,69.15
2018-01-30T03:22:49.606Z,67.73
2018-01-30T03:23:49.584Z,66.87
2018-01-30T03:25:42.916Z,64.31
2018-01-30T03:26:42.884Z,64.59
2018-01-30T03:28:35.713Z,66.68
2018-01-30T03:29:35.680Z,64.11
2018-01-30T03:31:29.030Z,62.88
2018-01-30T03:32:28.998Z,63.54
2018-01-30T03:34:22.323Z,62.02
2018-01-30T03:35:22.296Z,61.55
2018-01-30T03:37:15.138Z,60.31
2018-01-30T03:38:15.103Z,60.41
2018-01-30T03:40:07.929Z,62.40
2018-01-30T03:41:07.909Z,61.35
2018-01-30T03:43:01.265Z,60.50
2018-01-30T03:44:01.227Z,60.69
2018-01-30T03:45:54.557Z,60.69
2018-01-30T03:46:54.530Z,61.26
2018-01-30T03:48:47.868Z,62.49
2018-01-30T03:49:47.827Z,62.69
2018-01-30T03:51:40.653Z,62.12
2018-01-30T03:52:40.643Z,62.40
2018-01-30T03:54:33.470Z,61.74
2018-01-30T03:55:33.443Z,62.40
2018-01-30T03:57:26.761Z,60.60
2018-01-30T03:58:26.739Z,60.12
2018-01-30T04:00:19.579Z,59.74
2018-01-30T04:01:19.548Z,58.88
2018-01-30T04:03:12.370Z,60.31
2018-01-30T04:04:12.349Z,60.41
2018-01-30T04:06:05.688Z,59.17
2018-01-30T04:07:05.649Z,60.78
2018-01-30T04:08:58.972Z,62.21
2018-01-30T04:09:58.953Z,61.07
2018-01-30T04:11:52.296Z,62.88
2018-01-30T04:12:52.259Z,62.49
2018-01-30T04:14:45.587Z,62.97
2018-01-30T04:15:45.558Z,63.45
2018-01-30T04:17:38.899Z,63.35
2018-01-30T04:18:38.858Z,63.45
2018-01-30T04:20:32.178Z,62.49
2018-01-30T04:21:32.168Z,64.31
2018-01-30T04:23:25.495Z,62.78
2018-01-30T04:24:25.458Z,61.55
2018-01-30T04:26:18.798Z,60.31
2018-01-30T04:27:18.778Z,60.97
2018-01-30T04:29:11.615Z,60.69
2018-01-30T04:30:11.584Z,58.22
2018-01-30T04:32:04.904Z,57.26
2018-01-30T04:33:04.876Z,56.03
2018-01-30T04:34:57.721Z,54.50
2018-01-30T04:35:57.700Z,52.32
2018-01-30T04:37:51.008Z,49.85
2018-01-30T04:38:51.002Z,49.27
2018-01-30T04:40:44.322Z,50.79
2018-01-30T04:41:44.283Z,51.27
2018-01-30T04:43:37.114Z,53.75
2018-01-30T04:44:37.091Z,54.32
2018-01-30T04:46:29.934Z,57.55
2018-01-30T04:47:29.899Z,58.06
2018-01-30T04:49:23.220Z,60.53
2018-01-30T04:50:23.200Z,62.05
2018-01-30T04:52:16.544Z,65.77
2018-01-30T04:53:16.508Z,70.10
2018-01-30T04:55:09.831Z,73.47
2018-01-30T04:56:09.813Z,72.14
2018-01-30T04:58:03.164Z,67.67
2018-01-30T04:59:03.115Z,67.67
2018-01-30T05:00:56.438Z,66.62
2018-01-30T05:01:56.419Z,66.14
2018-01-30T05:03:49.764Z,67.19
2018-01-30T05:04:49.729Z,66.81
2018-01-30T05:06:43.057Z,67.19
2018-01-30T05:07:43.039Z,66.53
2018-01-30T05:09:36.476Z,65.58
2018-01-30T05:10:36.336Z,63.76
2018-01-30T05:12:29.165Z,61.77
2018-01-30T05:13:29.137Z,63.48
2018-01-30T05:15:22.477Z,62.91
2018-01-30T05:16:22.454Z,62.15
2018-01-30T05:18:15.797Z,64.05
2018-01-30T05:19:15.744Z,63.39
2018-01-30T05:21:09.081Z,63.48
2018-01-30T05:22:09.043Z,65.29
2018-01-30T05:24:02.373Z,62.72
2018-01-30T05:25:02.355Z,62.62
2018-01-30T05:26:55.681Z,63.57
2018-01-30T05:27:55.646Z,64.15
2018-01-30T05:29:48.974Z,59.86
2018-01-30T05:30:48.966Z,66.56
2018-01-30T05:32:42.300Z,67.32
2018-01-30T05:33:42.247Z,70.84
2018-01-30T05:35:35.570Z,71.13
2018-01-30T05:36:35.552Z,73.47
2018-01-30T05:38:28.889Z,72.75
2018-01-30T05:39:28.851Z,71.47
2018-01-30T05:41:21.681Z,70.90
2018-01-30T05:42:21.660Z,71.67
2018-01-30T05:44:15.003Z,72.81
2018-01-30T05:45:14.972Z,72.85
2018-01-30T05:47:08.291Z,73.85
2018-01-30T05:48:08.268Z,73.76
2018-01-30T05:50:01.616Z,72.24
2018-01-30T05:51:01.585Z,70.81
2018-01-30T05:52:54.930Z,71.38
2018-01-30T05:53:54.894Z,73.57
2018-01-30T05:55:48.217Z,72.62
2018-01-30T05:56:48.185Z,72.42
2018-01-30T05:58:41.020Z,73.85
2018-01-30T05:59:41.000Z,74.33
2018-01-30T06:01:34.344Z,75.85
2018-01-30T06:02:34.319Z,74.04
2018-01-30T06:04:27.637Z,74.33
2018-01-30T06:05:27.636Z,75.85
2018-01-30T06:07:20.964Z,80.33
2018-01-30T06:08:20.926Z,80.13
2018-01-30T06:10:14.250Z,82.04
2018-01-30T06:11:14.234Z,82.61
2018-01-30T06:13:07.579Z,85.94
2018-01-30T06:14:07.529Z,88.79
2018-01-30T06:16:00.850Z,93.32
2018-01-30T06:17:00.850Z,94.08
2018-01-30T06:18:54.177Z,99.02
2018-01-30T06:19:54.153Z,96.84
2018-01-30T06:21:47.481Z,99.99
2018-01-30T06:22:47.473Z,99.99
2018-01-30T06:24:40.819Z,99.99
2018-01-30T06:25:40.775Z,99.99
2018-01-30T06:27:34.089Z,99.99
2018-01-30T06:28:34.071Z,99.99
2018-01-30T06:30:27.416Z,99.99
2018-01-30T06:31:27.379Z,99.99
2018-01-30T06:33:20.725Z,99.99
2018-01-30T06:34:20.695Z,99.99
2018-01-30T06:36:14.049Z,99.99
2018-01-30T06:37:14.006Z,99.99
2018-01-30T06:39:06.829Z,99.99
2018-01-30T06:40:06.817Z,99.99
2018-01-30T06:42:00.145Z,99.99
2018-01-30T06:43:00.127Z,99.99
2018-01-30T06:44:53.440Z,99.99
2018-01-30T06:45:53.416Z,99.99
2018-01-30T06:47:46.753Z,99.99
2018-01-30T06:48:46.727Z,99.99
2018-01-30T06:50:39.550Z,99.99
2018-01-30T06:51:39.538Z,99.99
2018-01-30T06:53:32.878Z,99.99
2018-01-30T06:54:32.840Z,99.99
2018-01-30T06:56:26.149Z,99.99
2018-01-30T06:57:26.138Z,99.99
2018-01-30T06:59:18.975Z,99.99
2018-01-30T07:00:18.934Z,99.99
2018-01-30T07:02:12.263Z,99.99
2018-01-30T07:03:12.246Z,99.99
2018-01-30T07:05:05.615Z,99.99
2018-01-30T07:06:05.539Z,99.99
2018-01-30T07:07:58.864Z,99.99
2018-01-30T07:08:58.848Z,99.99
2018-01-30T07:10:51.683Z,99.99
2018-01-30T07:11:51.654Z,99.99
2018-01-30T07:13:44.477Z,99.99
2018-01-30T07:14:44.457Z,99.99
2018-01-30T07:16:37.818Z,99.99
2018-01-30T07:17:37.792Z,99.99
2018-01-30T07:19:31.109Z,99.99
2018-01-30T07:20:31.079Z,99.99
2018-01-30T07:22:24.423Z,99.99
2018-01-30T07:23:24.380Z,99.99
2018-01-30T07:25:17.712Z,99.99
2018-01-30T07:26:17.691Z,99.99
2018-01-30T07:28:11.045Z,99.99
2018-01-30T07:29:10.991Z,99.99
2018-01-30T07:31:03.832Z,99.99
2018-01-30T07:32:03.798Z,99.99
2018-01-30T07:33:56.654Z,99.99
2018-01-30T07:34:56.607Z,99.99
2018-01-30T07:36:49.923Z,99.99
2018-01-30T07:37:49.927Z,99.99
2018-01-30T07:39:43.274Z,99.99
2018-01-30T07:40:43.242Z,99.99
2018-01-30T07:42:36.547Z,99.99
2018-01-30T07:43:36.537Z,99.99
2018-01-30T07:45:29.884Z,99.99
2018-01-30T07:46:29.845Z,99.99
2018-01-30T07:48:23.171Z,99.99
2018-01-30T07:49:23.145Z,99.99
2018-01-30T07:51:16.496Z,99.99
2018-01-30T07:52:16.473Z,99.99
2018-01-30T07:54:09.789Z,99.99
2018-01-30T07:55:09.767Z,99.99
2018-01-30T07:57:03.120Z,99.99
2018-01-30T07:58:03.088Z,99.99
2018-01-30T07:59:56.413Z,99.99
2018-01-30T08:00:56.374Z,99.99
2018-01-30T08:02:49.712Z,99.99
2018-01-30T08:03:49.684Z,99.99
2018-01-30T08:05:42.995Z,99.99
2018-01-30T08:06:42.975Z,99.99
2018-01-30T08:08:35.817Z,99.99
2018-01-30T08:09:35.780Z,99.99
2018-01-30T08:11:28.628Z,99.99
2018-01-30T08:12:28.588Z,99.99
2018-01-30T08:14:21.932Z,99.99
2018-01-30T08:15:21.902Z,99.99
2018-01-30T08:17:15.222Z,99.99
2018-01-30T08:18:15.194Z,99.99
2018-01-30T08:20:08.529Z,99.99
2018-01-30T08:21:08.510Z,99.99
2018-01-30T08:23:01.817Z,99.99
2018-01-30T08:24:01.794Z,99.99
2018-01-30T08:25:55.149Z,99.99
2018-01-30T08:26:55.115Z,99.99
2018-01-30T08:28:48.441Z,99.99
2018-01-30T08:29:48.424Z,99.99
2018-01-30T08:31:41.797Z,99.99
2018-01-30T08:32:41.736Z,99.99
2018-01-30T08:34:34.550Z,99.99
2018-01-30T08:35:34.546Z,99.99
2018-01-30T08:37:27.897Z,99.99
2018-01-30T08:38:27.855Z,99.99
2018-01-30T08:40:21.177Z,99.99
2018-01-30T08:41:21.158Z,99.99
2018-01-30T08:43:14.502Z,99.99
2018-01-30T08:44:14.458Z,99.99
2018-01-30T08:46:07.288Z,99.99
2018-01-30T08:47:07.281Z,99.99
2018-01-30T08:49:00.618Z,99.99
2018-01-30T08:50:00.571Z,99.99
2018-01-30T08:51:53.910Z,99.99
2018-01-30T08:52:53.901Z,99.99
2018-01-30T08:54:47.236Z,99.99
2018-01-30T08:55:47.193Z,99.99
2018-01-30T08:57:41.519Z,99.99
2018-01-30T08:58:41.506Z,99.99
2018-01-30T09:00:35.852Z,99.99
2018-01-30T09:01:35.811Z,99.99
2018-01-30T09:03:29.156Z,99.99
2018-01-30T09:04:29.106Z,99.99
2018-01-30T09:06:23.553Z,99.99
2018-01-30T09:07:23.435Z,99.99
2018-01-30T09:09:16.784Z,99.99
2018-01-30T09:10:16.747Z,99.99
2018-01-30T09:12:11.086Z,99.99
2018-01-30T09:13:11.041Z,99.99
2018-01-30T09:15:04.395Z,99.99
2018-01-30T09:16:04.357Z,99.99
2018-01-30T09:17:57.722Z,99.99
2018-01-30T09:18:57.712Z,99.99
2018-01-30T09:20:51.028Z,99.99
2018-01-30T09:21:50.991Z,99.99
2018-01-30T09:23:44.332Z,99.99
2018-01-30T09:24:44.308Z,99.99
2018-01-30T09:26:37.654Z,99.99
2018-01-30T09:27:37.640Z,99.99
2018-01-30T09:29:30.972Z,99.99
2018-01-30T09:30:30.918Z,99.99
2018-01-30T09:32:24.256Z,99.99
2018-01-30T09:33:24.233Z,99.99
2018-01-30T09:35:17.574Z,99.99
2018-01-30T09:36:17.550Z,99.99
2018-01-30T09:38:11.954Z,99.99
2018-01-30T09:39:11.910Z,99.99
2018-01-30T09:41:05.310Z,99.99
2018-01-30T09:42:05.231Z,99.99
2018-01-30T09:43:58.561Z,99.99
2018-01-30T09:44:58.551Z,99.99
2018-01-30T09:46:51.927Z,99.99
2018-01-30T09:47:51.871Z,99.99
2018-01-30T09:49:52.830Z,99.99
2018-01-30T09:50:45.200Z,99.99
2018-01-30T09:52:38.540Z,99.99
2018-01-30T09:53:38.535Z,99.99
2018-01-30T09:55:39.973Z,99.99
2018-01-30T09:56:40.470Z,99.99
2018-01-30T09:58:32.797Z,99.99
2018-01-30T09:59:33.804Z,99.99
2018-01-30T10:01:27.105Z,99.99
2018-01-30T10:02:26.071Z,99.99
2018-01-30T10:04:11.796Z,99.99
2018-01-30T10:05:11.757Z,99.99
2018-01-30T10:07:05.107Z,99.99
2018-01-30T10:08:05.084Z,99.99
2018-01-30T10:09:58.425Z,99.99
2018-01-30T10:10:58.431Z,99.99
2018-01-30T10:12:51.762Z,99.99
2018-01-30T10:13:51.748Z,99.99
2018-01-30T10:15:45.058Z,99.99
2018-01-30T10:16:45.012Z,99.99
2018-01-30T10:18:38.369Z,99.99
2018-01-30T10:19:38.320Z,99.99
2018-01-30T10:21:31.702Z,99.99
2018-01-30T10:22:31.686Z,99.99
2018-01-30T10:24:25.997Z,99.99
2018-01-30T10:25:25.970Z,99.99
2018-01-30T10:27:20.334Z,99.99
2018-01-30T10:28:20.263Z,99.99
2018-01-30T10:30:13.625Z,99.99
2018-01-30T10:31:13.611Z,99.99
2018-01-30T10:33:06.960Z,99.99
2018-01-30T10:34:06.919Z,99.99
2018-01-30T10:36:00.250Z,99.99
2018-01-30T10:37:00.244Z,99.99
2018-01-30T10:38:53.601Z,99.99
2018-01-30T10:39:53.560Z,99.99
2018-01-30T10:41:46.898Z,99.99
2018-01-30T10:42:46.906Z,99.99
2018-01-30T10:44:40.241Z,99.99
2018-01-30T10:45:40.189Z,99.99
2018-01-30T10:47:33.518Z,99.99
2018-01-30T10:48:33.535Z,99.99
2018-01-30T10:50:26.869Z,99.99
2018-01-30T10:51:26.826Z,99.99
2018-01-30T10:53:21.166Z,99.99
2018-01-30T10:54:21.134Z,99.99
2018-01-30T10:56:15.502Z,99.99
2018-01-30T10:57:15.448Z,99.99
2018-01-30T10:59:08.803Z,99.99
2018-01-30T11:00:08.766Z,99.99
2018-01-30T11:02:02.146Z,99.99
2018-01-30T11:03:02.080Z,99.99
2018-01-30T11:04:55.420Z,99.99
2018-01-30T11:05:55.409Z,99.99
2018-01-30T11:07:48.786Z,99.99
2018-01-30T11:08:48.738Z,99.99
2018-01-30T11:10:42.075Z,99.99
2018-01-30T11:11:42.041Z,99.99
2018-01-30T11:13:35.449Z,99.99
2018-01-30T11:14:35.375Z,99.99
2018-01-30T11:16:28.702Z,99.99
2018-01-30T11:17:28.668Z,99.99
2018-01-30T11:19:22.056Z,99.99
2018-01-30T11:20:22.005Z,99.99
2018-01-30T11:22:16.346Z,99.99
2018-01-30T11:23:16.330Z,99.99
2018-01-30T11:25:09.687Z,99.99
2018-01-30T11:26:09.615Z,99.99
2018-01-30T11:28:02.982Z,99.99
2018-01-30T11:29:02.962Z,99.99
2018-01-30T11:30:56.316Z,99.99
2018-01-30T11:31:56.284Z,99.99
2018-01-30T11:33:49.603Z,99.99
2018-01-30T11:34:49.613Z,99.99
2018-01-30T11:36:42.976Z,99.99
2018-01-30T11:37:42.919Z,99.99
2018-01-30T11:39:37.253Z,99.99
2018-01-30T11:40:37.255Z,99.99
2018-01-30T11:42:30.565Z,99.99
2018-01-30T11:43:30.547Z,99.99
2018-01-30T11:45:23.909Z,99.99
2018-01-30T11:46:23.897Z,99.99
2018-01-30T11:48:17.216Z,99.99
2018-01-30T11:49:17.224Z,99.99
2018-01-30T11:51:10.537Z,99.99
2018-01-30T11:52:10.491Z,99.99
2018-01-30T11:54:03.865Z,99.99
2018-01-30T11:55:03.839Z,99.99
2018-01-30T11:56:57.196Z,99.99
2018-01-30T11:57:57.168Z,99.99
2018-01-30T11:59:50.509Z,99.99
2018-01-30T12:00:50.492Z,99.99
2018-01-30T12:02:43.790Z,99.99
2018-01-30T12:03:43.781Z,99.99
2018-01-30T12:05:37.166Z,99.99
2018-01-30T12:06:37.133Z,99.99
2018-01-30T12:08:32.038Z,99.99
2018-01-30T12:09:31.432Z,99.99
2018-01-30T12:11:24.784Z,99.99
2018-01-30T12:12:24.749Z,99.99
2018-01-30T12:14:19.085Z,99.99
2018-01-30T12:15:19.084Z,99.99
2018-01-30T12:17:12.421Z,99.99
2018-01-30T12:18:12.374Z,99.99
2018-01-30T12:20:05.711Z,99.99
2018-01-30T12:21:05.685Z,99.99
2018-01-30T12:22:59.043Z,99.99
2018-01-30T12:23:59.002Z,99.99
2018-01-30T12:25:52.386Z,99.99
2018-01-30T12:26:52.313Z,99.99
2018-01-30T12:28:46.697Z,99.99
2018-01-30T12:29:46.654Z,99.99
2018-01-30T12:31:41.013Z,99.99
2018-01-30T12:32:40.994Z,99.99
2018-01-30T12:34:34.350Z,99.99
2018-01-30T12:35:34.316Z,99.99
2018-01-30T12:37:27.656Z,99.99
2018-01-30T12:38:27.642Z,99.99
2018-01-30T12:40:21.027Z,99.99
2018-01-30T12:41:21.550Z,99.99
2018-01-30T12:43:14.268Z,99.99
2018-01-30T12:44:14.255Z,99.99
2018-01-30T12:46:07.628Z,99.99
2018-01-30T12:47:07.578Z,99.99
2018-01-30T12:49:00.920Z,99.99
2018-01-30T12:50:00.870Z,99.99
2018-01-30T12:51:54.270Z,99.99
2018-01-30T12:52:54.208Z,99.99
2018-01-30T12:54:47.560Z,99.99
2018-01-30T12:55:47.541Z,99.99
2018-01-30T12:57:40.881Z,99.99
2018-01-30T12:58:40.827Z,99.99
2018-01-30T13:00:34.181Z,99.99
2018-01-30T13:01:34.177Z,99.99
2018-01-30T13:03:27.535Z,99.99
2018-01-30T13:04:27.480Z,99.99
2018-01-30T13:06:20.813Z,99.99
2018-01-30T13:07:20.808Z,99.99
2018-01-30T13:09:14.183Z,99.99
2018-01-30T13:10:14.134Z,99.99
2018-01-30T13:12:08.456Z,99.99
2018-01-30T13:13:08.462Z,99.99
2018-01-30T13:15:02.807Z,99.99
2018-01-30T13:16:02.746Z,99.99
2018-01-30T13:17:56.114Z,99.99
2018-01-30T13:18:56.093Z,99.99
2018-01-30T13:20:49.432Z,99.99
2018-01-30T13:21:49.403Z,99.99
2018-01-30T13:23:42.738Z,99.99
2018-01-30T13:24:42.720Z,99.99
2018-01-30T13:26:36.104Z,99.99
2018-01-30T13:27:36.047Z,99.99
2018-01-30T13:29:29.393Z,99.99
2018-01-30T13:30:29.368Z,99.99
2018-01-30T13:32:22.707Z,99.99
2018-01-30T13:33:22.684Z,99.99
2018-01-30T13:35:17.024Z,99.99
2018-01-30T13:36:16.994Z,99.99
2018-01-30T13:38:10.322Z,99.99
2018-01-30T13:39:10.315Z,99.99
2018-01-30T13:41:04.638Z,99.99
2018-01-30T13:42:04.640Z,99.99
2018-01-30T13:43:57.972Z,99.99
2018-01-30T13:44:57.951Z,99.99
2018-01-30T13:46:51.300Z,99.99
2018-01-30T13:47:51.279Z,99.99
2018-01-30T13:49:44.640Z,99.99
2018-01-30T13:50:44.582Z,99.99
2018-01-30T13:52:37.941Z,99.99
2018-01-30T13:53:37.917Z,99.99
2018-01-30T13:55:31.296Z,99.99
2018-01-30T13:56:31.254Z,99.99
2018-01-30T13:58:24.584Z,99.99
2018-01-30T13:59:24.561Z,99.99
2018-01-30T14:01:17.920Z,99.99
2018-01-30T14:02:17.882Z,99.99
2018-01-30T14:04:11.241Z,99.99
2018-01-30T14:05:11.221Z,99.99
2018-01-30T14:07:05.582Z,99.99
2018-01-30T14:08:05.548Z,99.99
2018-01-30T14:09:59.852Z,99.99
2018-01-30T14:10:59.843Z,99.99
2018-01-30T14:12:53.187Z,99.99
2018-01-30T14:13:53.140Z,99.99
2018-01-30T14:15:46.524Z,99.99
2018-01-30T14:16:46.491Z,99.99
2018-01-30T14:18:39.820Z,99.99
2018-01-30T14:19:39.812Z,99.99
2018-01-30T14:21:34.139Z,99.99
2018-01-30T14:22:34.120Z,99.99
2018-01-30T14:24:27.462Z,99.99
2018-01-30T14:25:27.436Z,99.99
2018-01-30T14:27:20.757Z,99.99
2018-01-30T14:28:20.740Z,99.99
2018-01-30T14:30:14.095Z,99.99
2018-01-30T14:31:14.062Z,99.99
2018-01-30T14:33:08.380Z,99.99
2018-01-30T14:34:08.380Z,99.99
2018-01-30T14:36:01.760Z,99.99
2018-01-30T14:37:01.681Z,99.99
2018-01-30T14:38:56.043Z,99.99
2018-01-30T14:39:56.020Z,99.99
2018-01-30T14:41:49.372Z,99.99
2018-01-30T14:42:49.369Z,99.99
2018-01-30T14:44:42.690Z,99.99
2018-01-30T14:45:42.635Z,99.99
2018-01-30T14:47:37.000Z,99.99
2018-01-30T14:48:36.961Z,99.99
2018-01-30T14:50:31.293Z,99.99
2018-01-30T14:51:31.275Z,99.99
2018-01-30T14:53:24.647Z,99.99
2018-01-30T14:54:24.596Z,99.99
2018-01-30T14:56:17.929Z,99.99
2018-01-30T14:57:17.904Z,99.99
2018-01-30T14:59:11.279Z,99.99
2018-01-30T15:00:11.229Z,99.99
2018-01-30T15:02:04.589Z,99.99
2018-01-30T15:03:04.549Z,99.99
2018-01-30T15:04:58.899Z,99.99
2018-01-30T15:05:58.862Z,99.99
2018-01-30T15:07:52.226Z,99.99
2018-01-30T15:08:52.212Z,99.99
2018-01-30T15:10:45.559Z,99.99
2018-01-30T15:11:45.522Z,99.99
2018-01-30T15:13:38.854Z,99.99
2018-01-30T15:14:38.852Z,99.99
2018-01-30T15:16:32.194Z,99.99
2018-01-30T15:17:32.162Z,99.99
2018-01-30T15:19:25.488Z,99.99
2018-01-30T15:20:25.512Z,99.99
2018-01-30T15:22:18.818Z,99.99
2018-01-30T15:23:18.782Z,99.99
2018-01-30T15:25:12.120Z,99.99
2018-01-30T15:26:12.097Z,99.99
2018-01-30T15:28:05.455Z,99.99
2018-01-30T15:29:05.411Z,99.99
2018-01-30T15:30:58.736Z,99.99
2018-01-30T15:31:58.726Z,99.99
2018-01-30T15:33:52.055Z,99.99
2018-01-30T15:34:52.080Z,99.99
2018-01-30T15:36:45.353Z,99.99
2018-01-30T15:37:45.362Z,99.99
2018-01-30T15:39:38.711Z,99.99
2018-01-30T15:40:38.657Z,99.99
2018-01-30T15:42:32.020Z,99.99
2018-01-30T15:43:32.012Z,99.99
2018-01-30T15:45:25.338Z,99.99
2018-01-30T15:46:25.286Z,99.99
2018-01-30T15:48:18.637Z,99.99
2018-01-30T15:49:18.613Z,99.99
2018-01-30T15:51:12.970Z,99.99
2018-01-30T15:52:12.904Z,99.99
2018-01-30T15:54:07.238Z,99.99
2018-01-30T15:55:07.238Z,99.99
2018-01-30T15:57:00.600Z,99.99
2018-01-30T15:58:00.564Z,99.99
2018-01-30T15:59:53.893Z,99.99
2018-01-30T16:00:53.847Z,99.99
2018-01-30T16:02:47.209Z,99.99
2018-01-30T16:03:47.180Z,99.99
2018-01-30T16:05:40.525Z,99.99
2018-01-30T16:06:40.493Z,99.99
2018-01-30T16:08:33.831Z,99.99
2018-01-30T16:09:33.808Z,99.99
2018-01-30T16:11:28.127Z,99.99
2018-01-30T16:12:28.097Z,99.99
2018-01-30T16:14:22.443Z,99.99
2018-01-30T16:15:22.416Z,99.99
2018-01-30T16:17:16.799Z,99.99
2018-01-30T16:18:16.745Z,99.99
2018-01-30T16:20:10.093Z,99.99
2018-01-30T16:21:10.064Z,99.99
2018-01-30T16:23:03.388Z,99.99
2018-01-30T16:24:03.344Z,99.99
2018-01-30T16:25:56.729Z,99.99
2018-01-30T16:26:56.685Z,99.99
2018-01-30T16:28:51.024Z,99.99
2018-01-30T16:29:50.991Z,99.99
2018-01-30T16:31:44.360Z,99.99
2018-01-30T16:32:44.333Z,99.99
2018-01-30T16:34:37.644Z,99.99
2018-01-30T16:35:37.664Z,99.99
2018-01-30T16:37:31.992Z,99.99
2018-01-30T16:38:31.942Z,99.99
2018-01-30T16:40:25.271Z,99.99
2018-01-30T16:41:25.241Z,99.99
2018-01-30T16:43:18.599Z,99.99
2018-01-30T16:44:18.564Z,99.99
2018-01-30T16:46:11.919Z,99.99
2018-01-30T16:47:11.873Z,99.99
2018-01-30T16:49:06.218Z,99.99
2018-01-30T16:50:06.199Z,99.99
2018-01-30T16:51:59.509Z,99.99
2018-01-30T16:52:59.513Z,99.99
2018-01-30T16:54:53.829Z,99.99
2018-01-30T16:55:53.815Z,99.99
2018-01-30T16:57:48.143Z,99.99
2018-01-30T16:58:48.123Z,99.99
2018-01-30T17:00:42.489Z,99.99
2018-01-30T17:01:42.435Z,99.99
2018-01-30T17:03:35.782Z,99.99
2018-01-30T17:04:35.739Z,99.99
2018-01-30T17:06:29.111Z,99.99
2018-01-30T17:07:29.101Z,99.99
2018-01-30T17:09:22.374Z,99.99
2018-01-30T17:10:22.365Z,99.99
2018-01-30T17:12:15.732Z,99.99
2018-01-30T17:13:15.704Z,99.99
2018-01-30T17:15:09.026Z,99.99
2018-01-30T17:16:09.018Z,99.99
2018-01-30T17:18:02.347Z,99.99
2018-01-30T17:19:02.297Z,99.99
2018-01-30T17:20:55.646Z,99.99
2018-01-30T17:21:55.618Z,99.99
2018-01-30T17:23:49.985Z,99.99
2018-01-30T17:24:49.953Z,99.99
2018-01-30T17:26:43.287Z,99.99
2018-01-30T17:27:43.241Z,99.99
2018-01-30T17:29:36.600Z,99.99
2018-01-30T17:30:36.587Z,99.99
2018-01-30T17:32:30.931Z,99.99
2018-01-30T17:33:30.891Z,99.99
2018-01-30T17:35:25.273Z,99.99
2018-01-30T17:36:25.217Z,99.99
2018-01-30T17:38:18.550Z,99.99
2018-01-30T17:39:18.536Z,99.99
2018-01-30T17:41:11.898Z,99.99
2018-01-30T17:42:11.867Z,99.99
2018-01-30T17:44:05.187Z,99.99
2018-01-30T17:45:05.189Z,99.99
2018-01-30T17:46:58.511Z,99.99
2018-01-30T17:47:58.478Z,99.99
2018-01-30T17:49:51.832Z,99.99
2018-01-30T17:50:51.809Z,99.99
2018-01-30T17:52:45.166Z,99.99
2018-01-30T17:53:45.118Z,99.99
2018-01-30T17:55:39.475Z,99.99
2018-01-30T17:56:39.426Z,99.99
2018-01-30T17:58:33.764Z,99.99
2018-01-30T17:59:33.720Z,99.99
2018-01-30T18:01:27.080Z,99.99
2018-01-30T18:02:27.083Z,99.99
2018-01-30T18:04:20.391Z,99.99
2018-01-30T18:05:20.393Z,99.99
2018-01-30T18:07:14.711Z,99.99
2018-01-30T18:08:14.682Z,99.99
2018-01-30T18:10:08.027Z,99.99
2018-01-30T18:11:07.997Z,99.99
2018-01-30T18:13:01.910Z,99.99
2018-01-30T18:14:01.488Z,99.99
2018-01-30T18:15:54.711Z,99.99
2018-01-30T18:16:54.614Z,99.99
2018-01-30T18:18:48.360Z,99.99
2018-01-30T18:19:48.311Z,99.99
2018-01-30T18:21:41.516Z,99.99
2018-01-30T18:22:41.987Z,99.99
2018-01-30T18:24:34.812Z,99.99
2018-01-30T18:25:34.797Z,99.99
2018-01-30T18:27:28.127Z,99.99
2018-01-30T18:28:28.108Z,99.99
2018-01-30T18:30:22.424Z,99.99
2018-01-30T18:31:22.414Z,99.99
2018-01-30T18:33:15.771Z,99.99
2018-01-30T18:34:15.737Z,99.99
2018-01-30T18:36:09.074Z,99.99